Terminal Aerodrome Forecast
Issued by NWS Louisville, KY

Home | Current Version | Previous Version | Text Only | Print | Product List | Glossary On
Versions: 1 2 3 4 5 6 7 8 9 10 11 12 13 14 15 16 17
000
FTUS43 KLMK 292300
TAFLEX
TAF
KLEX 292320Z 3000/3024 26006KT P6SM VCTS SCT030CB BKN150
     FM300100 21004KT P6SM BKN250
     FM300700 21003KT 4SM BR SCT250
      TEMPO 3008/3012 2SM BR
     FM301300 25012G18KT P6SM SCT040=

USA.gov is the U.S. government's official web portal to all federal, state and local government web resources and services.